createdAt,value
2017-08-22T00:01:37.224Z,1015.86
2017-08-22T00:06:33.239Z,1015.85
2017-08-22T00:11:29.035Z,1015.90
2017-08-22T00:16:24.944Z,1016.07
2017-08-22T00:21:21.375Z,1016.08
2017-08-22T00:26:18.301Z,1016.01
2017-08-22T00:31:13.789Z,1016.00
2017-08-22T00:36:09.525Z,1015.96
2017-08-22T00:41:05.321Z,1015.95
2017-08-22T00:46:01.232Z,1015.98
2017-08-22T00:50:59.048Z,1016.06
2017-08-22T00:55:55.243Z,1016.05
2017-08-22T01:00:50.545Z,1016.07
2017-08-22T01:05:46.462Z,1016.06
2017-08-22T01:10:42.325Z,1016.08
2017-08-22T01:15:39.172Z,1016.09
2017-08-22T01:20:34.697Z,1016.04
2017-08-22T01:25:30.781Z,1016.11
2017-08-22T01:30:26.918Z,1016.13
2017-08-22T01:35:22.668Z,1016.08
2017-08-22T01:40:18.235Z,1015.94
2017-08-22T01:45:14.020Z,1015.97
2017-08-22T01:50:10.289Z,1016.02
2017-08-22T01:55:06.041Z,1015.89
2017-08-22T02:00:02.835Z,1015.83
2017-08-22T02:04:58.466Z,1015.87
2017-08-22T02:09:55.157Z,1015.80
2017-08-22T02:14:50.715Z,1015.85
2017-08-22T02:19:46.525Z,1015.84
2017-08-22T02:24:43.312Z,1015.75
2017-08-22T02:29:38.778Z,1015.76
2017-08-22T02:34:35.760Z,1015.80
2017-08-22T02:39:32.445Z,1015.75
2017-08-22T02:44:28.717Z,1015.83
2017-08-22T02:49:26.149Z,1015.86
2017-08-22T02:54:21.754Z,1015.79
2017-08-22T02:59:17.800Z,1015.89
2017-08-22T03:04:13.585Z,1015.82
2017-08-22T03:09:09.325Z,1015.80
2017-08-22T03:14:05.322Z,1015.80
2017-08-22T03:19:01.962Z,1015.87
2017-08-22T03:23:57.228Z,1015.91
2017-08-22T03:28:53.848Z,1015.86
2017-08-22T03:33:50.811Z,1015.88
2017-08-22T03:38:46.125Z,1015.85
2017-08-22T03:43:43.188Z,1015.77
2017-08-22T03:48:38.619Z,1015.76
2017-08-22T03:53:35.178Z,1015.80
2017-08-22T03:58:30.975Z,1015.79
2017-08-22T04:03:27.891Z,1015.77
2017-08-22T04:08:24.211Z,1015.78
2017-08-22T04:13:20.869Z,1015.76
2017-08-22T04:18:17.861Z,1015.92
2017-08-22T04:23:14.611Z,1015.78
2017-08-22T04:28:10.519Z,1015.88
2017-08-22T04:33:06.263Z,1015.71
2017-08-22T04:38:02.033Z,1015.83
2017-08-22T04:42:57.695Z,1015.79
2017-08-22T04:47:54.563Z,1015.90
2017-08-22T04:52:51.656Z,1015.83
2017-08-22T04:57:47.538Z,1015.78
2017-08-22T05:02:43.380Z,1015.79
2017-08-22T05:07:39.433Z,1015.83
2017-08-22T05:12:34.975Z,1015.84
2017-08-22T05:17:32.376Z,1015.76
2017-08-22T05:22:28.047Z,1015.72
2017-08-22T05:27:24.594Z,1015.75
2017-08-22T05:32:20.541Z,1015.76
2017-08-22T05:37:17.042Z,1015.77
2017-08-22T05:42:12.742Z,1015.79
2017-08-22T05:47:08.708Z,1015.77
2017-08-22T05:52:05.519Z,1015.70
2017-08-22T05:57:02.076Z,1015.77
2017-08-22T06:01:58.214Z,1015.84
2017-08-22T06:06:54.246Z,1015.85
2017-08-22T06:11:50.494Z,1015.93
2017-08-22T06:16:46.303Z,1015.91
2017-08-22T06:21:42.231Z,1015.81
2017-08-22T06:26:37.880Z,1015.85
2017-08-22T06:31:34.116Z,1015.79
2017-08-22T06:36:30.208Z,1015.89
2017-08-22T06:41:26.139Z,1015.83
2017-08-22T06:46:22.469Z,1015.87
2017-08-22T06:51:18.849Z,1015.91
2017-08-22T06:56:15.057Z,1015.92
2017-08-22T07:01:11.215Z,1016.01
2017-08-22T07:06:07.302Z,1016.02
2017-08-22T07:11:03.175Z,1016.00
2017-08-22T07:15:59.135Z,1015.96
2017-08-22T07:20:55.074Z,1016.03
2017-08-22T07:25:51.170Z,1016.12
2017-08-22T07:30:48.147Z,1015.96
2017-08-22T07:35:44.857Z,1015.99
2017-08-22T07:40:40.677Z,1016.01
2017-08-22T07:45:37.914Z,1016.12
2017-08-22T07:50:34.015Z,1015.99
2017-08-22T07:55:31.169Z,1016.00
2017-08-22T08:00:28.216Z,1016.03
2017-08-22T08:05:23.889Z,1016.05
2017-08-22T08:10:19.752Z,1016.07
2017-08-22T08:15:16.169Z,1016.10
2017-08-22T08:20:13.205Z,1016.02
2017-08-22T08:25:10.702Z,1016.06
2017-08-22T08:30:08.235Z,1016.19
2017-08-22T08:35:05.356Z,1016.04
2017-08-22T08:40:02.328Z,1015.92
2017-08-22T08:44:57.540Z,1015.97
2017-08-22T08:49:53.118Z,1015.87
2017-08-22T08:54:48.933Z,1015.91
2017-08-22T08:59:45.857Z,1015.84
2017-08-22T09:04:42.284Z,1015.87
2017-08-22T09:09:38.863Z,1015.70
2017-08-22T09:14:34.373Z,1015.79
2017-08-22T09:19:30.217Z,1015.78
2017-08-22T09:24:26.689Z,1015.74
2017-08-22T09:29:22.529Z,1015.73
2017-08-22T09:34:20.210Z,1015.67
2017-08-22T09:39:16.255Z,1015.60
2017-08-22T09:44:13.246Z,1015.64
2017-08-22T09:49:09.421Z,1015.68
2017-08-22T09:54:06.234Z,1015.78
2017-08-22T09:59:03.467Z,1015.53
2017-08-22T10:03:59.544Z,1015.62
2017-08-22T10:08:55.752Z,1015.69
2017-08-22T10:13:52.651Z,1015.76
2017-08-22T10:18:51.111Z,1015.79
2017-08-22T10:23:47.590Z,1015.46
2017-08-22T10:28:43.368Z,1015.34
2017-08-22T10:33:38.448Z,1015.34
2017-08-22T10:38:33.704Z,1015.31
2017-08-22T10:43:29.937Z,1015.34
2017-08-22T10:48:25.206Z,1015.31
2017-08-22T10:53:20.833Z,1015.24
2017-08-22T10:58:16.811Z,1015.25
2017-08-22T11:03:13.638Z,1015.36
2017-08-22T11:08:09.659Z,1015.23
2017-08-22T11:13:05.586Z,1015.41
2017-08-22T11:18:04.513Z,1015.17
2017-08-22T11:22:59.999Z,1015.24
2017-08-22T11:27:55.153Z,1015.10
2017-08-22T11:32:50.109Z,1015.12
2017-08-22T11:37:45.675Z,1015.10
2017-08-22T11:42:44.524Z,1015.08
2017-08-22T11:47:42.778Z,1015.05
2017-08-22T11:52:38.690Z,1015.05
2017-08-22T11:57:36.608Z,1014.95
2017-08-22T12:02:30.958Z,1014.99
2017-08-22T12:07:27.273Z,1015.00
2017-08-22T12:12:25.138Z,1014.83
2017-08-22T12:17:19.149Z,1014.89
2017-08-22T12:22:13.970Z,1014.86
2017-08-22T12:27:08.861Z,1014.84
2017-08-22T12:32:04.058Z,1014.86
2017-08-22T12:36:59.590Z,1014.62
2017-08-22T12:41:55.966Z,1014.62
2017-08-22T12:46:52.096Z,1014.64
2017-08-22T12:51:48.245Z,1014.58
2017-08-22T12:56:44.421Z,1014.48
2017-08-22T13:01:40.222Z,1014.56
2017-08-22T13:06:35.866Z,1014.62
2017-08-22T13:11:31.592Z,1014.56
2017-08-22T13:16:27.752Z,1014.62
2017-08-22T13:21:24.441Z,1014.55
2017-08-22T13:26:21.662Z,1014.46
2017-08-22T13:31:17.300Z,1014.47
2017-08-22T13:36:13.205Z,1014.51
2017-08-22T13:41:08.974Z,1014.45
2017-08-22T13:46:05.732Z,1014.46
2017-08-22T13:51:01.981Z,1014.44
2017-08-22T13:55:57.957Z,1014.39
2017-08-22T14:00:53.790Z,1014.38
2017-08-22T14:05:49.806Z,1014.32
2017-08-22T14:10:47.067Z,1014.34
2017-08-22T14:15:42.697Z,1014.37
2017-08-22T14:20:38.627Z,1014.24
2017-08-22T14:25:34.510Z,1014.18
2017-08-22T14:30:30.654Z,1014.18
2017-08-22T14:35:26.764Z,1014.18
2017-08-22T14:40:23.294Z,1014.16
2017-08-22T14:45:20.171Z,1014.15
2017-08-22T14:50:16.961Z,1014.04
2017-08-22T14:55:14.282Z,1013.99
2017-08-22T15:00:09.750Z,1013.96
2017-08-22T15:05:05.581Z,1014.02
2017-08-22T15:10:01.320Z,1013.89
2017-08-22T15:14:57.160Z,1013.99
2017-08-22T15:19:53.033Z,1013.95
2017-08-22T15:24:49.364Z,1013.88
2017-08-22T15:29:45.035Z,1013.89
2017-08-22T15:34:41.036Z,1013.90
2017-08-22T15:39:36.935Z,1013.82
2017-08-22T15:44:32.680Z,1013.94
2017-08-22T15:49:28.692Z,1013.85
2017-08-22T15:54:25.727Z,1013.84
2017-08-22T15:59:21.431Z,1013.85
2017-08-22T16:04:17.310Z,1013.86
2017-08-22T16:09:14.269Z,1013.78
2017-08-22T16:14:10.227Z,1013.72
2017-08-22T16:19:06.229Z,1013.90
2017-08-22T16:24:02.701Z,1013.78
2017-08-22T16:28:58.397Z,1013.76
2017-08-22T16:33:55.281Z,1013.77
2017-08-22T16:38:50.882Z,1013.71
2017-08-22T16:43:46.735Z,1013.63
2017-08-22T16:48:44.013Z,1013.56
2017-08-22T16:53:39.624Z,1013.54
2017-08-22T16:58:36.358Z,1013.53
2017-08-22T17:03:32.231Z,1013.49
2017-08-22T17:08:28.110Z,1013.46
2017-08-22T17:13:23.930Z,1013.53
2017-08-22T17:18:20.870Z,1013.42
2017-08-22T17:23:17.549Z,1013.35
2017-08-22T17:28:13.135Z,1013.35
2017-08-22T17:33:09.951Z,1013.28
2017-08-22T17:38:05.430Z,1013.28
2017-08-22T17:43:01.403Z,1013.41
2017-08-22T17:47:57.201Z,1013.41
2017-08-22T17:52:54.002Z,1013.34
2017-08-22T17:57:50.021Z,1013.35
2017-08-22T18:02:46.110Z,1013.39
2017-08-22T18:07:41.862Z,1013.36
2017-08-22T18:12:39.230Z,1013.38
2017-08-22T18:17:34.713Z,1013.38
2017-08-22T18:22:30.876Z,1013.34
2017-08-22T18:27:27.570Z,1013.34
2017-08-22T18:32:23.751Z,1013.33
2017-08-22T18:37:19.474Z,1013.39
2017-08-22T18:42:16.021Z,1013.43
2017-08-22T18:47:12.920Z,1013.47
2017-08-22T18:52:08.284Z,1013.62
2017-08-22T18:57:05.019Z,1013.63
2017-08-22T19:02:00.405Z,1013.52
2017-08-22T19:06:56.231Z,1013.63
2017-08-22T19:11:52.259Z,1013.67
2017-08-22T19:16:48.084Z,1013.64
2017-08-22T19:21:45.197Z,1013.55
2017-08-22T19:26:41.836Z,1013.55
2017-08-22T19:31:37.860Z,1013.52
2017-08-22T19:36:35.709Z,1013.55
2017-08-22T19:41:31.327Z,1013.42
2017-08-22T19:46:27.365Z,1013.48
2017-08-22T19:51:23.480Z,1013.46
2017-08-22T19:56:19.926Z,1013.50
2017-08-22T20:01:16.526Z,1013.52
2017-08-22T20:06:12.356Z,1013.53
2017-08-22T20:11:08.552Z,1013.52
2017-08-22T20:16:05.263Z,1013.51
2017-08-22T20:21:00.737Z,1013.47
2017-08-22T20:25:57.840Z,1013.44
2017-08-22T20:30:53.321Z,1013.53
2017-08-22T20:35:49.023Z,1013.48
2017-08-22T20:40:44.999Z,1013.54
2017-08-22T20:45:40.736Z,1013.42
2017-08-22T20:50:36.702Z,1013.51
2017-08-22T20:55:32.274Z,1013.51
2017-08-22T21:00:28.023Z,1013.54
2017-08-22T21:05:25.044Z,1013.49
2017-08-22T21:10:20.529Z,1013.45
2017-08-22T21:15:17.461Z,1013.51
2017-08-22T21:20:13.102Z,1013.48
2017-08-22T21:25:08.935Z,1013.32
2017-08-22T21:30:04.787Z,1013.34
2017-08-22T21:35:00.495Z,1013.35
2017-08-22T21:39:57.076Z,1013.32
2017-08-22T21:44:53.500Z,1013.37
2017-08-22T21:49:50.186Z,1013.32
2017-08-22T21:54:45.818Z,1013.27
2017-08-22T21:59:41.638Z,1013.33
2017-08-22T22:04:37.655Z,1013.25
2017-08-22T22:09:33.456Z,1013.32
2017-08-22T22:14:30.109Z,1013.24
2017-08-22T22:19:26.716Z,1013.33
2017-08-22T22:24:22.438Z,1013.31
2017-08-22T22:29:18.131Z,1013.23
2017-08-22T22:34:14.825Z,1013.26
2017-08-22T22:39:10.654Z,1013.22
2017-08-22T22:44:06.391Z,1013.09
2017-08-22T22:49:02.260Z,1013.05
2017-08-22T22:53:57.884Z,1013.14
2017-08-22T22:58:54.612Z,1013.14
2017-08-22T23:03:51.914Z,1013.12
2017-08-22T23:08:48.569Z,1013.20
2017-08-22T23:13:45.012Z,1013.20
2017-08-22T23:18:40.641Z,1013.22
2017-08-22T23:23:36.487Z,1013.20
2017-08-22T23:28:32.546Z,1013.12
2017-08-22T23:33:28.087Z,1013.04
2017-08-22T23:38:25.747Z,1012.93
2017-08-22T23:43:22.493Z,1013.07
2017-08-22T23:48:17.994Z,1013.02
2017-08-22T23:53:14.237Z,1012.94
2017-08-22T23:58:10.066Z,1012.81
